Eunice, Missouri
Current Conditions -  °F | °C
As of 7:26 PM on Thursday 18 Dec 2014 (Local Time) from KUNO Reporting Station
Overcast Overcast  
Wind Chill: 36°   Ceiling: 600
Heat Index: 36°   Visibility: 8mi
Dew Point: 34°   Wind: 3mph
Humidity: 93%   Direction: 120°ESE
Pressure: 30.21"   Gusts: NA
Location:  37.24°N, 91.78°W
Report Text: KUNO 190126Z AUTO 12003KT 8SM OVC006 02/01 A3021 RMK AO2 T00220011
Loading
Personal Weather Stations






























Interactive Weather Map New forecast layout! Learn more

10-Day Weather Forecast

Advertisements
Track Severe Weather on mobile